ΕΜΥ, Εθνική Μετεωρολογική Υπηρεσία - Δελτία Καιρού, Προγνώσεις

ΑΕΡΟΝΑΥΤΙΛΙΑ

GREEK AIRPORTS CODES

LGMG 191000Z 00000KT 9999 SCT025 33/06 Q1013=

EUROPEAN AIRPORTS CODES

TAF LGMG 191000Z 1912/1921 34010G20KT 9999 FEW020 TEMPO 1912/1914 24010G20KT 9999 FEW020=